createdAt,value
2017-10-31T00:01:12.589Z,9.00
2017-10-31T00:03:40.020Z,9.50
2017-10-31T00:06:08.280Z,8.30
2017-10-31T00:08:35.704Z,8.67
2017-10-31T00:11:03.129Z,9.77
2017-10-31T00:13:30.558Z,9.00
2017-10-31T00:15:58.761Z,10.77
2017-10-31T00:18:26.192Z,10.70
2017-10-31T00:20:54.377Z,10.40
2017-10-31T00:23:22.572Z,9.17
2017-10-31T00:25:49.992Z,9.33
2017-10-31T00:28:17.420Z,8.67
2017-10-31T00:30:44.849Z,8.93
2017-10-31T00:33:12.281Z,8.13
2017-10-31T00:35:40.471Z,8.97
2017-10-31T00:38:07.900Z,9.37
2017-10-31T00:40:36.084Z,9.63
2017-10-31T00:43:04.357Z,9.20
2017-10-31T00:45:32.551Z,9.80
2017-10-31T00:47:59.967Z,9.93
2017-10-31T00:50:27.410Z,8.73
2017-10-31T00:52:54.811Z,9.73
2017-10-31T00:55:22.240Z,9.33
2017-10-31T00:57:49.668Z,9.40
2017-10-31T01:00:17.102Z,9.30
2017-10-31T01:02:44.520Z,9.53
2017-10-31T01:05:12.724Z,8.53
2017-10-31T01:07:40.144Z,9.10
2017-10-31T01:10:07.576Z,9.77
2017-10-31T01:12:35.052Z,9.70
2017-10-31T01:15:02.480Z,9.10
2017-10-31T01:17:29.916Z,9.03
2017-10-31T01:19:57.328Z,9.97
2017-10-31T01:22:24.755Z,10.43
2017-10-31T01:24:52.197Z,9.33
2017-10-31T01:27:19.628Z,10.43
2017-10-31T01:29:47.055Z,9.63
2017-10-31T01:32:14.473Z,9.90
2017-10-31T01:34:41.907Z,11.00
2017-10-31T01:37:09.332Z,10.70
2017-10-31T01:39:37.539Z,10.57
2017-10-31T01:42:04.976Z,11.20
2017-10-31T01:44:32.428Z,10.30
2017-10-31T01:47:00.616Z,9.83
2017-10-31T01:49:28.041Z,8.57
2017-10-31T01:51:55.474Z,10.00
2017-10-31T01:54:22.903Z,10.13
2017-10-31T01:56:50.324Z,9.47
2017-10-31T01:59:18.521Z,10.00
2017-10-31T02:01:45.949Z,9.50
2017-10-31T02:04:13.385Z,11.27
2017-10-31T02:06:40.812Z,10.20
2017-10-31T02:09:08.267Z,10.37
2017-10-31T02:11:35.703Z,10.17
2017-10-31T02:14:03.129Z,10.07
2017-10-31T02:16:30.557Z,9.63
2017-10-31T02:18:57.985Z,8.90
2017-10-31T02:21:25.420Z,10.47
2017-10-31T02:23:53.616Z,7.97
2017-10-31T02:26:21.064Z,8.97
2017-10-31T02:28:48.489Z,8.60
2017-10-31T02:31:15.922Z,9.33
2017-10-31T02:33:43.360Z,7.77
2017-10-31T02:36:10.794Z,9.03
2017-10-31T02:38:49.993Z,8.90
2017-10-31T02:41:17.421Z,9.03
2017-10-31T02:43:44.861Z,7.57
2017-10-31T02:46:12.293Z,8.37
2017-10-31T02:48:39.728Z,8.70
2017-10-31T02:51:07.917Z,8.63
2017-10-31T02:53:35.354Z,9.00
2017-10-31T02:56:02.782Z,7.73
2017-10-31T02:58:30.216Z,9.00
2017-10-31T03:00:57.635Z,8.50
2017-10-31T03:03:25.846Z,8.60
2017-10-31T03:05:53.269Z,8.60
2017-10-31T03:08:21.471Z,8.43
2017-10-31T03:10:48.901Z,7.70
2017-10-31T03:13:17.106Z,7.00
2017-10-31T03:15:44.531Z,7.40
2017-10-31T03:18:12.735Z,8.53
2017-10-31T03:20:40.156Z,7.40
2017-10-31T03:23:08.357Z,6.63
2017-10-31T03:25:35.785Z,6.70
2017-10-31T03:28:04.000Z,7.40
2017-10-31T03:30:31.417Z,6.87
2017-10-31T03:32:59.641Z,5.93
2017-10-31T03:35:27.069Z,6.60
2017-10-31T03:37:54.511Z,6.13
2017-10-31T03:40:21.956Z,5.77
2017-10-31T03:42:49.393Z,7.20
2017-10-31T03:45:16.828Z,7.27
2017-10-31T03:47:44.261Z,6.80
2017-10-31T03:50:11.689Z,6.80
2017-10-31T03:52:39.884Z,6.20
2017-10-31T03:55:09.372Z,6.00
2017-10-31T03:57:37.568Z,6.20
2017-10-31T04:00:05.001Z,6.23
2017-10-31T04:02:33.200Z,6.50
2017-10-31T04:05:00.632Z,6.37
2017-10-31T04:07:28.828Z,5.60
2017-10-31T04:09:56.277Z,6.60
2017-10-31T04:12:24.473Z,6.67
2017-10-31T04:14:51.902Z,7.33
2017-10-31T04:17:20.109Z,6.07
2017-10-31T04:19:47.538Z,8.03
2017-10-31T04:22:15.753Z,6.83
2017-10-31T04:24:43.177Z,5.53
2017-10-31T04:27:10.613Z,6.53
2017-10-31T04:29:38.064Z,6.60
2017-10-31T04:32:05.502Z,5.93
2017-10-31T04:34:32.941Z,6.90
2017-10-31T04:37:00.377Z,7.17
2017-10-31T04:39:27.801Z,6.93
2017-10-31T04:41:56.029Z,6.33
2017-10-31T04:44:23.453Z,6.30
2017-10-31T04:46:50.880Z,5.80
2017-10-31T04:49:18.317Z,5.77
2017-10-31T04:51:45.743Z,6.03
2017-10-31T04:54:13.176Z,5.80
2017-10-31T04:56:40.605Z,6.33
2017-10-31T04:59:08.040Z,5.97
2017-10-31T05:01:35.521Z,5.40
2017-10-31T05:04:02.953Z,5.60
2017-10-31T05:06:30.388Z,5.87
2017-10-31T05:08:57.819Z,5.90
2017-10-31T05:11:25.247Z,6.50
2017-10-31T05:13:52.673Z,6.07
2017-10-31T05:16:20.861Z,6.07
2017-10-31T05:18:48.309Z,5.87
2017-10-31T05:21:15.795Z,5.27
2017-10-31T05:23:43.229Z,6.47
2017-10-31T05:26:10.663Z,6.93
2017-10-31T05:28:38.223Z,6.23
2017-10-31T05:31:05.633Z,7.13
2017-10-31T05:33:33.828Z,6.67
2017-10-31T05:36:01.265Z,7.30
2017-10-31T05:38:29.461Z,6.10
2017-10-31T05:40:56.892Z,7.30
2017-10-31T05:43:25.092Z,6.63
2017-10-31T05:45:52.573Z,7.47
2017-10-31T05:48:20.009Z,5.67
2017-10-31T05:50:48.208Z,5.43
2017-10-31T05:53:16.021Z,7.73
2017-10-31T05:55:43.437Z,6.63
2017-10-31T05:58:10.928Z,7.70
2017-10-31T06:00:38.369Z,7.40
2017-10-31T06:03:05.798Z,7.00
2017-10-31T06:05:33.898Z,5.97
2017-10-31T06:08:01.376Z,6.37
2017-10-31T06:10:28.801Z,5.40
2017-10-31T06:12:57.048Z,6.60
2017-10-31T06:15:24.469Z,5.90
2017-10-31T06:17:52.692Z,5.80
2017-10-31T06:20:20.170Z,6.33
2017-10-31T06:22:53.202Z,5.40
2017-10-31T06:28:30.120Z,5.70
2017-10-31T06:31:03.306Z,6.20
2017-10-31T06:33:30.740Z,6.33
2017-10-31T06:35:58.161Z,7.37
2017-10-31T06:38:26.420Z,6.30
2017-10-31T06:40:53.844Z,6.30
2017-10-31T06:43:22.153Z,5.17
2017-10-31T06:45:49.560Z,7.00
2017-10-31T06:48:17.017Z,6.20
2017-10-31T06:50:45.497Z,6.03
2017-10-31T06:53:12.922Z,5.70
2017-10-31T06:55:40.356Z,5.70
2017-10-31T06:58:07.790Z,6.97
2017-10-31T07:00:35.225Z,7.17
2017-10-31T07:03:05.197Z,5.83
2017-10-31T07:05:32.637Z,7.53
2017-10-31T07:08:00.068Z,7.37
2017-10-31T07:10:28.269Z,9.43
2017-10-31T07:12:55.709Z,10.53
2017-10-31T07:15:23.149Z,11.50
2017-10-31T07:17:50.569Z,13.30
2017-10-31T07:20:18.064Z,17.23
2017-10-31T07:22:46.272Z,15.43
2017-10-31T07:25:13.714Z,11.17
2017-10-31T07:27:41.140Z,8.87
2017-10-31T07:30:08.593Z,9.00
2017-10-31T07:32:36.067Z,8.00
2017-10-31T07:35:03.518Z,9.20
2017-10-31T07:37:30.976Z,8.63
2017-10-31T07:39:58.416Z,8.23
2017-10-31T07:42:26.611Z,7.77
2017-10-31T07:44:54.065Z,7.50
2017-10-31T07:47:21.517Z,8.87
2017-10-31T07:49:48.985Z,9.07
2017-10-31T07:52:16.401Z,8.93
2017-10-31T07:54:43.833Z,8.90
2017-10-31T07:57:11.260Z,8.30
2017-10-31T07:59:39.456Z,8.13
2017-10-31T08:02:06.888Z,8.20
2017-10-31T08:04:35.078Z,8.43
2017-10-31T08:07:03.280Z,8.53
2017-10-31T08:09:30.709Z,9.03
2017-10-31T08:11:58.911Z,8.27
2017-10-31T08:14:26.337Z,9.07
2017-10-31T08:16:54.549Z,9.30
2017-10-31T08:19:21.980Z,8.67
2017-10-31T08:21:49.408Z,8.37
2017-10-31T08:24:16.841Z,8.47
2017-10-31T08:26:44.270Z,8.17
2017-10-31T08:29:11.697Z,7.63
2017-10-31T08:31:39.961Z,9.30
2017-10-31T08:34:07.389Z,7.47
2017-10-31T08:36:34.816Z,10.67
2017-10-31T08:39:02.245Z,7.47
2017-10-31T08:41:30.449Z,9.13
2017-10-31T08:43:57.880Z,9.27
2017-10-31T08:46:25.308Z,9.63
2017-10-31T08:48:52.776Z,8.23
2017-10-31T08:51:20.224Z,8.13
2017-10-31T08:53:47.704Z,8.80
2017-10-31T08:56:15.961Z,9.33
2017-10-31T08:58:43.392Z,9.63
2017-10-31T09:01:10.829Z,8.17
2017-10-31T09:03:38.252Z,8.00
2017-10-31T09:06:06.509Z,8.83
2017-10-31T09:08:33.961Z,8.23
2017-10-31T09:11:01.397Z,8.40
2017-10-31T09:13:28.828Z,9.07
2017-10-31T09:15:56.256Z,9.40
2017-10-31T09:18:24.452Z,9.47
2017-10-31T09:20:51.876Z,8.20
2017-10-31T09:23:20.065Z,8.77
2017-10-31T09:25:47.492Z,7.93
2017-10-31T09:28:14.949Z,8.30
2017-10-31T09:30:42.382Z,7.60
2017-10-31T09:33:09.812Z,9.57
2017-10-31T09:35:38.640Z,8.57
2017-10-31T09:38:07.755Z,9.97
2017-10-31T09:40:35.205Z,9.47
2017-10-31T09:43:02.635Z,9.47
2017-10-31T09:45:30.061Z,9.53
2017-10-31T09:47:57.496Z,9.73
2017-10-31T09:50:25.704Z,9.20
2017-10-31T09:52:53.138Z,9.00
2017-10-31T09:55:20.569Z,8.03
2017-10-31T09:57:48.028Z,7.40
2017-10-31T10:00:15.465Z,9.10
2017-10-31T10:02:42.944Z,8.53
2017-10-31T10:05:11.148Z,8.50
2017-10-31T10:07:38.597Z,8.63
2017-10-31T10:10:06.824Z,7.60
2017-10-31T10:12:34.418Z,6.80
2017-10-31T10:15:01.861Z,7.37
2017-10-31T10:17:29.292Z,7.00
2017-10-31T10:19:56.905Z,7.17
2017-10-31T10:22:25.090Z,9.63
2017-10-31T10:24:52.691Z,7.20
2017-10-31T10:27:20.105Z,9.40
2017-10-31T10:29:47.588Z,8.73
2017-10-31T10:32:15.188Z,7.20
2017-10-31T10:34:42.620Z,7.07
2017-10-31T10:37:10.076Z,8.17
2017-10-31T10:39:37.638Z,7.73
2017-10-31T10:42:05.123Z,9.27
2017-10-31T10:44:32.557Z,8.87
2017-10-31T10:46:59.992Z,8.50
2017-10-31T10:49:43.857Z,8.13
2017-10-31T10:52:12.485Z,8.30
2017-10-31T10:54:46.741Z,9.53
2017-10-31T10:57:18.304Z,8.27
2017-10-31T10:59:50.864Z,9.27
2017-10-31T11:02:18.499Z,9.53
2017-10-31T11:04:46.872Z,8.37
2017-10-31T11:07:15.081Z,8.60
2017-10-31T11:09:42.962Z,8.73
2017-10-31T11:12:35.474Z,7.90
2017-10-31T11:15:03.526Z,8.40
2017-10-31T11:17:31.713Z,9.27
2017-10-31T11:19:59.155Z,8.30
2017-10-31T11:22:27.348Z,7.50
2017-10-31T11:24:54.781Z,8.67
2017-10-31T11:27:22.977Z,8.63
2017-10-31T11:29:50.416Z,8.10
2017-10-31T11:32:18.624Z,8.47
2017-10-31T11:34:46.058Z,7.20
2017-10-31T11:37:14.256Z,7.40
2017-10-31T11:39:42.710Z,8.13
2017-10-31T11:42:10.912Z,9.00
2017-10-31T11:44:38.593Z,7.23
2017-10-31T11:47:06.035Z,7.67
2017-10-31T11:49:35.356Z,5.47
2017-10-31T11:52:02.948Z,7.00
2017-10-31T11:54:32.948Z,7.13
2017-10-31T11:57:01.025Z,5.83
2017-10-31T11:59:28.994Z,5.93
2017-10-31T12:01:56.537Z,7.00
2017-10-31T12:04:24.273Z,5.80
2017-10-31T12:06:52.124Z,5.60
2017-10-31T12:09:19.550Z,6.03
2017-10-31T12:11:46.985Z,5.53
2017-10-31T12:14:14.469Z,4.37
2017-10-31T12:16:41.904Z,4.10
2017-10-31T12:19:09.377Z,4.90
2017-10-31T12:21:36.808Z,5.03
2017-10-31T12:24:04.290Z,5.90
2017-10-31T12:26:31.705Z,6.20
2017-10-31T12:28:59.129Z,5.33
2017-10-31T12:31:27.342Z,4.77
2017-10-31T12:33:54.769Z,6.20
2017-10-31T12:36:22.200Z,4.73
2017-10-31T12:38:49.628Z,3.40
2017-10-31T12:41:17.077Z,4.70
2017-10-31T12:43:44.555Z,3.80
2017-10-31T12:46:13.212Z,3.37
2017-10-31T12:48:40.675Z,4.57
2017-10-31T12:51:26.726Z,3.50
2017-10-31T12:53:54.941Z,3.87
2017-10-31T12:56:22.370Z,4.10
2017-10-31T12:58:49.853Z,3.40
2017-10-31T13:01:17.310Z,3.47
2017-10-31T13:03:44.816Z,3.73
2017-10-31T13:06:13.021Z,4.10
2017-10-31T13:08:40.473Z,3.50
2017-10-31T13:11:15.098Z,3.20
2017-10-31T13:13:42.578Z,3.40
2017-10-31T13:16:10.644Z,3.40
2017-10-31T13:18:38.062Z,3.13
2017-10-31T13:21:06.272Z,2.83
2017-10-31T13:23:33.798Z,3.50
2017-10-31T13:26:02.204Z,3.53
2017-10-31T13:28:31.012Z,3.80
2017-10-31T13:31:01.729Z,4.73
2017-10-31T13:33:29.579Z,3.93
2017-10-31T13:35:57.889Z,3.50
2017-10-31T13:38:25.684Z,2.80
2017-10-31T13:40:54.771Z,3.03
2017-10-31T13:43:23.225Z,2.90
2017-10-31T13:45:50.645Z,2.53
2017-10-31T13:48:19.030Z,2.30
2017-10-31T13:50:51.033Z,2.43
2017-10-31T13:53:19.273Z,2.77
2017-10-31T13:55:49.832Z,2.67
2017-10-31T13:58:17.288Z,3.10
2017-10-31T14:00:44.874Z,2.30
2017-10-31T14:03:12.517Z,2.70
2017-10-31T14:05:40.120Z,2.00
2017-10-31T14:08:22.763Z,2.33
2017-10-31T14:10:50.373Z,2.07
2017-10-31T14:13:17.833Z,2.60
2017-10-31T14:15:50.029Z,2.20
2017-10-31T14:18:18.530Z,1.90
2017-10-31T14:20:51.439Z,1.20
2017-10-31T14:23:18.950Z,1.93
2017-10-31T14:25:47.258Z,1.70
2017-10-31T14:28:14.700Z,1.87
2017-10-31T14:30:42.911Z,2.07
2017-10-31T14:39:14.106Z,2.60
2017-10-31T14:41:41.582Z,1.97
2017-10-31T14:44:09.074Z,2.60
2017-10-31T14:46:37.305Z,2.00
2017-10-31T14:49:13.482Z,2.63
2017-10-31T14:52:00.535Z,2.70
2017-10-31T14:54:35.215Z,2.27
2017-10-31T15:00:01.444Z,2.30
2017-10-31T15:02:28.909Z,1.80
2017-10-31T15:05:06.113Z,2.10
2017-10-31T15:07:33.599Z,2.13
2017-10-31T15:10:08.182Z,2.23
2017-10-31T15:12:35.673Z,2.80
2017-10-31T15:15:17.109Z,3.20
2017-10-31T15:17:44.880Z,2.50
2017-10-31T15:20:13.018Z,2.30
2017-10-31T15:22:40.468Z,3.20
2017-10-31T15:25:08.674Z,2.57
2017-10-31T15:27:36.161Z,2.47
2017-10-31T15:30:05.508Z,2.40
2017-10-31T15:32:33.709Z,2.50
2017-10-31T15:35:02.446Z,2.53
2017-10-31T15:37:30.683Z,3.20
2017-10-31T15:40:02.485Z,3.33
2017-10-31T15:42:38.013Z,2.90
2017-10-31T15:45:05.585Z,2.87
2017-10-31T15:47:37.434Z,3.80
2017-10-31T15:50:05.825Z,4.37
2017-10-31T15:52:33.261Z,4.00
2017-10-31T15:55:08.404Z,4.60
2017-10-31T15:57:35.849Z,4.87
2017-10-31T16:00:03.434Z,4.27
2017-10-31T16:02:30.873Z,5.40
2017-10-31T16:04:58.303Z,4.00
2017-10-31T16:07:31.716Z,4.87
2017-10-31T16:09:59.147Z,4.90
2017-10-31T16:12:26.579Z,5.07
2017-10-31T16:14:54.773Z,4.50
2017-10-31T16:17:23.228Z,5.07
2017-10-31T16:19:51.461Z,3.90
2017-10-31T16:22:18.900Z,3.50
2017-10-31T16:24:46.325Z,5.03
2017-10-31T16:27:14.531Z,4.33
2017-10-31T16:29:41.954Z,3.40
2017-10-31T16:32:10.152Z,4.00
2017-10-31T16:34:37.577Z,3.97
2017-10-31T16:37:06.785Z,3.00
2017-10-31T16:39:34.978Z,4.20
2017-10-31T16:42:02.436Z,4.50
2017-10-31T16:44:29.897Z,4.67
2017-10-31T16:47:02.029Z,4.83
2017-10-31T16:49:31.236Z,4.47
2017-10-31T16:51:59.432Z,4.67
2017-10-31T16:54:26.869Z,4.53
2017-10-31T16:56:55.068Z,3.70
2017-10-31T16:59:22.497Z,3.97
2017-10-31T17:01:50.692Z,4.63
2017-10-31T17:04:25.163Z,5.10
2017-10-31T17:06:52.649Z,5.20
2017-10-31T17:09:20.084Z,4.77
2017-10-31T17:11:47.569Z,4.97
2017-10-31T17:14:15.765Z,5.30
2017-10-31T17:16:46.273Z,4.70
2017-10-31T17:19:14.469Z,6.10
2017-10-31T17:21:41.901Z,7.67
2017-10-31T17:24:10.106Z,8.90
2017-10-31T17:26:39.581Z,9.17
2017-10-31T17:29:07.777Z,9.40
2017-10-31T17:31:35.217Z,9.70
2017-10-31T17:34:03.408Z,8.37
2017-10-31T17:36:30.845Z,9.70
2017-10-31T17:38:59.036Z,8.90
2017-10-31T17:41:27.503Z,10.57
2017-10-31T17:43:54.931Z,7.70
2017-10-31T17:46:22.387Z,8.37
2017-10-31T17:48:49.817Z,7.60
2017-10-31T17:51:18.258Z,8.80
2017-10-31T17:53:45.681Z,6.57
2017-10-31T17:56:13.113Z,6.90
2017-10-31T17:58:40.593Z,6.80
2017-10-31T18:01:08.063Z,7.70
2017-10-31T18:03:35.532Z,9.00
2017-10-31T18:06:03.745Z,9.93
2017-10-31T18:08:31.246Z,9.60
2017-10-31T18:10:58.677Z,9.00
2017-10-31T18:13:31.921Z,9.60
2017-10-31T18:16:08.252Z,10.37
2017-10-31T18:18:35.728Z,10.50
2017-10-31T18:21:04.112Z,8.07
2017-10-31T18:23:31.551Z,8.27
2017-10-31T18:25:59.001Z,9.30
2017-10-31T18:28:26.449Z,8.80
2017-10-31T18:30:53.877Z,8.07
2017-10-31T18:33:26.637Z,10.10
2017-10-31T18:35:54.829Z,7.60
2017-10-31T18:38:22.264Z,8.00
2017-10-31T18:40:50.461Z,8.03
2017-10-31T18:43:19.006Z,8.77
2017-10-31T18:45:46.437Z,7.90
2017-10-31T18:48:13.883Z,10.47
2017-10-31T18:50:41.310Z,8.30
2017-10-31T18:53:08.737Z,8.17
2017-10-31T18:55:36.172Z,7.93
2017-10-31T18:58:03.616Z,7.73
2017-10-31T19:00:31.042Z,7.80
2017-10-31T19:02:58.479Z,7.60
2017-10-31T19:05:32.478Z,7.40
2017-10-31T19:07:59.928Z,7.20
2017-10-31T19:10:27.370Z,8.10
2017-10-31T19:12:54.807Z,19.90
2017-10-31T19:15:22.245Z,7.90
2017-10-31T19:17:49.666Z,8.27
2017-10-31T19:20:17.869Z,7.83
2017-10-31T19:22:45.301Z,8.13
2017-10-31T19:25:14.536Z,8.00
2017-10-31T19:27:41.957Z,8.60
2017-10-31T19:30:10.171Z,7.40
2017-10-31T19:32:43.226Z,7.43
2017-10-31T19:35:11.456Z,7.47
2017-10-31T19:37:38.877Z,23.13
2017-10-31T19:40:06.317Z,8.47
2017-10-31T19:42:34.553Z,10.77
2017-10-31T19:45:04.101Z,10.70
2017-10-31T19:47:32.306Z,11.00
2017-10-31T19:49:59.733Z,8.67
2017-10-31T19:52:27.937Z,8.23
2017-10-31T19:54:55.383Z,9.40
2017-10-31T19:57:22.832Z,8.80
2017-10-31T19:59:50.268Z,19.30
2017-10-31T20:02:18.465Z,8.40
2017-10-31T20:04:45.930Z,8.70
2017-10-31T20:07:13.458Z,8.33
2017-10-31T20:09:40.912Z,12.07
2017-10-31T20:12:08.345Z,8.50
2017-10-31T20:14:35.777Z,8.50
2017-10-31T20:17:03.209Z,8.60
2017-10-31T20:19:30.655Z,9.27
2017-10-31T20:21:58.884Z,9.80
2017-10-31T20:24:37.519Z,7.70
2017-10-31T20:27:31.295Z,12.30
2017-10-31T20:29:59.778Z,10.60
2017-10-31T20:32:27.230Z,9.13
2017-10-31T20:35:04.908Z,9.90
2017-10-31T20:37:32.353Z,8.40
2017-10-31T20:39:59.841Z,9.10
2017-10-31T20:42:27.285Z,9.10
2017-10-31T20:44:54.754Z,8.13
2017-10-31T20:47:41.833Z,10.13
2017-10-31T20:50:29.192Z,9.20
2017-10-31T20:56:15.501Z,8.87
2017-10-31T20:58:42.958Z,8.60
2017-10-31T21:01:10.401Z,9.77
2017-10-31T21:03:37.850Z,16.70
2017-10-31T21:06:05.311Z,12.67
2017-10-31T21:08:32.761Z,10.80
2017-10-31T21:11:00.209Z,10.30
2017-10-31T21:13:27.653Z,11.20
2017-10-31T21:15:55.090Z,9.27
2017-10-31T21:18:22.546Z,8.47
2017-10-31T21:20:49.993Z,10.43
2017-10-31T21:23:17.445Z,10.80
2017-10-31T21:25:44.885Z,11.50
2017-10-31T21:28:12.333Z,12.90
2017-10-31T21:30:39.773Z,10.20
2017-10-31T21:33:07.221Z,10.47
2017-10-31T21:35:34.670Z,13.60
2017-10-31T21:38:02.104Z,13.77
2017-10-31T21:40:29.556Z,11.03
2017-10-31T21:42:57.000Z,12.57
2017-10-31T21:45:24.457Z,13.93
2017-10-31T21:47:51.915Z,10.53
2017-10-31T21:50:36.046Z,11.77
2017-10-31T21:53:03.489Z,13.77
2017-10-31T21:55:30.930Z,14.10
2017-10-31T21:57:58.407Z,10.67
2017-10-31T22:00:25.858Z,12.90
2017-10-31T22:02:53.297Z,11.60
2017-10-31T22:05:20.749Z,9.97
2017-10-31T22:07:48.957Z,10.50
2017-10-31T22:10:16.407Z,11.67
2017-10-31T22:12:43.878Z,10.80
2017-10-31T22:15:11.325Z,10.43
2017-10-31T22:17:38.769Z,10.30
2017-10-31T22:20:12.204Z,11.40
2017-10-31T22:22:39.648Z,9.70
2017-10-31T22:25:07.069Z,8.93
2017-10-31T22:27:34.544Z,9.57
2017-10-31T22:30:01.983Z,11.10
2017-10-31T22:32:29.433Z,10.27
2017-10-31T22:34:56.881Z,10.37
2017-10-31T22:37:25.088Z,10.50
2017-10-31T22:39:52.569Z,10.80
2017-10-31T22:42:20.025Z,11.20
2017-10-31T22:44:47.475Z,10.90
2017-10-31T22:47:14.942Z,9.40
2017-10-31T22:49:42.381Z,11.23
2017-10-31T22:52:09.835Z,10.47
2017-10-31T22:54:37.277Z,9.47
2017-10-31T22:57:04.727Z,9.77
2017-10-31T22:59:32.166Z,9.80
2017-10-31T23:02:03.655Z,11.00
2017-10-31T23:04:31.108Z,9.47
2017-10-31T23:07:09.569Z,8.70
2017-10-31T23:09:37.013Z,10.47
2017-10-31T23:12:04.450Z,9.33
2017-10-31T23:14:31.917Z,9.60
2017-10-31T23:16:59.372Z,9.07
2017-10-31T23:19:26.821Z,9.00
2017-10-31T23:24:49.761Z,9.67
2017-10-31T23:27:17.974Z,10.03
2017-10-31T23:29:45.450Z,9.00
2017-10-31T23:32:13.688Z,8.90
2017-10-31T23:34:41.130Z,9.03
2017-10-31T23:37:08.573Z,9.90
2017-10-31T23:39:36.782Z,7.80
2017-10-31T23:42:04.231Z,8.57
2017-10-31T23:44:31.702Z,8.10
2017-10-31T23:46:59.162Z,9.40
2017-10-31T23:49:26.618Z,8.60
2017-10-31T23:51:54.067Z,9.43
2017-10-31T23:54:21.501Z,9.33
2017-10-31T23:56:49.708Z,8.20
2017-10-31T23:59:17.149Z,9.00
